Time;durP1;ratioP1;P1;durP2;ratioP2;P2;SDS_P1;SDS_P2;PMS_P1;PMS_P2;Temp;Humidity;BMP_temperature;BMP_pressure;BME280_temperature;BME280_humidity;BME280_pressure;Samples;Min_cycle;Max_cycle;Signal;HPM_P1;HPM_P2
2022/06/19 00:07:57;;;;;;;25.53;4.03;;;20.40;99.90;;;;;;21057561;28;20044;-78
2022/06/19 00:17:58;;;;;;;16.03;2.90;;;20.40;99.90;;;;;;21057222;28;20083;-78
2022/06/19 00:27:59;;;;;;;16.53;3.50;;;20.20;99.90;;;;;;21074351;28;20039;-77
2022/06/19 00:38:00;;;;;;;11.73;2.63;;;20.20;99.90;;;;;;21074361;28;20559;-78
2022/06/19 00:48:25;;;;;;;25.23;3.43;;;20.80;99.90;;;;;;21075774;28;20036;-78
2022/06/19 00:58:38;;;;;;;13.05;3.33;;;21.20;99.90;;;;;;21066612;28;20065;-79
2022/06/19 01:08:39;;;;;;;15.30;3.92;;;21.30;99.90;;;;;;21092678;28;20474;-78
2022/06/19 01:18:41;;;;;;;16.37;2.90;;;21.20;99.90;;;;;;21094884;28;20028;-78
2022/06/19 01:28:45;;;;;;;14.05;2.70;;;20.80;99.90;;;;;;21073836;28;20525;-78
2022/06/19 01:38:49;;;;;;;18.15;3.00;;;20.80;99.90;;;;;;21091005;28;20040;-78
2022/06/19 01:48:50;;;;;;;19.70;2.80;;;20.90;99.90;;;;;;21091988;28;20047;-78
2022/06/19 01:58:55;;;;;;;20.33;4.43;;;20.80;99.90;;;;;;21089171;28;20059;-78
2022/06/19 02:08:58;;;;;;;15.48;3.10;;;20.70;99.90;;;;;;21077736;28;20381;-78
2022/06/19 02:19:04;;;;;;;9.15;2.83;;;20.10;99.90;;;;;;21014914;28;20039;-78
2022/06/19 02:29:11;;;;;;;16.50;3.15;;;19.90;99.90;;;;;;21007788;28;20051;-79
2022/06/19 02:39:38;;;;;;;9.07;2.50;;;19.50;99.90;;;;;;21015644;28;20036;-78
2022/06/19 02:49:39;;;;;;;14.35;2.83;;;19.90;99.90;;;;;;20983382;28;20104;-78
2022/06/19 02:59:40;;;;;;;10.93;2.70;;;20.20;99.90;;;;;;21000540;28;20039;-78
2022/06/19 03:09:41;;;;;;;16.27;2.90;;;20.20;99.90;;;;;;21000969;28;20383;-78
2022/06/19 03:19:42;;;;;;;8.37;2.47;;;20.10;99.90;;;;;;20980485;28;20266;-78
2022/06/19 03:29:43;;;;;;;;;;;19.70;99.90;;;;;;20980731;28;20045;-77
2022/06/19 03:39:44;;;;;;;15.47;2.80;;;19.90;99.90;;;;;;20999621;28;19920;-77
2022/06/19 03:49:45;;;;;;;14.63;3.00;;;19.90;99.90;;;;;;20981244;28;20071;-78
2022/06/19 03:59:46;;;;;;;14.47;3.90;;;19.90;99.90;;;;;;20996881;28;20033;-77
2022/06/19 04:09:46;;;;;;;14.30;3.57;;;19.90;99.90;;;;;;21003804;28;20048;-76
2022/06/19 04:19:48;;;;;;;11.00;3.57;;;19.70;99.90;;;;;;20989439;28;20036;-77
2022/06/19 04:29:49;;;;;;;13.48;3.65;;;19.90;99.90;;;;;;20982955;28;20052;-77
2022/06/19 04:39:50;;;;;;;12.67;3.43;;;19.80;99.90;;;;;;21003750;28;20036;-76
2022/06/19 04:49:51;;;;;;;17.03;4.80;;;20.00;99.90;;;;;;21003153;28;20095;-76
2022/06/19 04:59:52;;;;;;;16.10;3.80;;;20.10;99.90;;;;;;21008466;28;20037;-76
2022/06/19 05:09:52;;;;;;;18.53;3.70;;;20.20;99.90;;;;;;21004868;28;20040;-76
2022/06/19 05:19:53;;;;;;;19.60;4.33;;;20.20;99.90;;;;;;21002038;28;20032;-77
2022/06/19 05:29:54;;;;;;;14.13;3.47;;;20.50;99.90;;;;;;21000116;28;20075;-77
2022/06/19 05:39:55;;;;;;;16.67;3.60;;;20.90;99.90;;;;;;20973066;22;20107;-77
2022/06/19 05:49:56;;;;;;;11.23;3.17;;;21.10;99.90;;;;;;20914102;28;20120;-77
2022/06/19 05:59:57;;;;;;;16.05;3.88;;;21.20;99.90;;;;;;20914720;28;20071;-77
2022/06/19 06:09:59;;;;;;;19.27;3.87;;;21.90;99.90;;;;;;20914173;28;20094;-78
2022/06/19 06:20:08;;;;;;;18.38;3.65;;;21.90;99.90;;;;;;20913215;28;20040;-76
2022/06/19 06:30:37;;;;;;;20.05;4.60;;;22.30;99.90;;;;;;20909671;28;20045;-77
2022/06/19 06:40:38;;;;;;;14.70;4.10;;;22.40;99.90;;;;;;20911693;28;20132;-76
2022/06/19 06:50:40;;;;;;;19.65;4.07;;;23.00;99.90;;;;;;20910216;28;20045;-76
2022/06/19 07:00:42;;;;;;;17.48;3.58;;;23.90;99.90;;;;;;20908851;28;20078;-76
2022/06/19 07:10:43;;;;;;;20.38;5.03;;;24.40;99.90;;;;;;20909341;28;20408;-76
2022/06/19 07:20:44;;;;;;;;;;;24.90;99.90;;;;;;20909257;28;20113;-76
2022/06/19 07:30:45;;;;;;;18.25;3.85;;;25.50;99.90;;;;;;20906562;28;19923;-76
2022/06/19 07:40:45;;;;;;;22.85;4.72;;;25.80;99.90;;;;;;20907633;28;20037;-76
2022/06/19 07:50:48;;;;;;;12.50;3.78;;;26.30;99.90;;;;;;20907315;28;20045;-77
2022/06/19 08:00:49;;;;;;;19.20;4.30;;;27.50;99.90;;;;;;20915337;28;20103;-77
2022/06/19 08:10:51;;;;;;;15.57;4.10;;;28.20;99.90;;;;;;20923375;28;20041;-76
2022/06/19 08:20:53;;;;;;;16.63;4.50;;;28.70;99.90;;;;;;20922894;28;20033;-77
2022/06/19 08:30:53;;;;;;;22.20;6.07;;;29.70;99.90;;;;;;20952470;28;20040;-77
2022/06/19 08:41:22;;;;;;;20.33;5.05;;;30.00;99.90;;;;;;21010260;28;20079;-77
2022/06/19 08:51:49;;;;;;;21.10;5.72;;;30.70;99.90;;;;;;21005571;28;20067;-77
2022/06/19 09:01:55;;;;;;;16.80;4.20;;;31.40;99.90;;;;;;21002873;28;20036;-77
2022/06/19 09:12:23;;;;;;;17.45;5.05;;;30.50;99.90;;;;;;21000871;28;20068;-77
2022/06/19 09:22:51;;;;;;;13.88;5.07;;;31.40;99.90;;;;;;21001004;28;20467;-77
2022/06/19 09:33:00;;;;;;;15.10;4.20;;;32.30;99.90;;;;;;21000323;28;20083;-77
2022/06/19 09:43:14;;;;;;;14.35;4.28;;;32.30;99.90;;;;;;21000210;28;20041;-77
2022/06/19 09:53:48;;;;;;;16.27;5.07;;;32.20;99.90;;;;;;20997799;28;20086;-78
2022/06/19 10:04:05;;;;;;;12.43;3.95;;;33.50;99.90;;;;;;20997785;28;20506;-77
2022/06/19 10:14:35;;;;;;;13.35;4.75;;;33.50;99.90;;;;;;20995531;28;20403;-78
2022/06/19 10:24:54;;;;;;;34.45;6.55;;;33.00;99.90;;;;;;20981479;28;20077;-77
2022/06/19 10:35:09;;;;;;;18.40;4.45;;;34.10;99.90;;;;;;20998427;28;20781;-78
2022/06/19 10:45:32;;;;;;;16.42;4.63;;;34.50;99.90;;;;;;20994293;28;20036;-78
2022/06/19 10:55:36;;;;;;;21.48;5.10;;;35.00;99.90;;;;;;20995758;28;20051;-78
2022/06/19 11:05:50;;;;;;;22.92;4.72;;;34.30;99.90;;;;;;20994517;28;20039;-77
2022/06/19 11:16:04;;;;;;;13.10;4.88;;;35.70;98.60;;;;;;20995226;28;20040;-77
2022/06/19 11:26:13;;;;;;;9.00;3.90;;;36.40;96.60;;;;;;20995822;28;20071;-77
2022/06/19 11:36:36;;;;;;;17.40;5.03;;;36.70;96.80;;;;;;20940178;28;20040;-77
2022/06/19 11:46:48;;;;;;;21.92;5.03;;;36.60;94.90;;;;;;21050780;22;20168;-78
2022/06/19 11:56:51;;;;;;;23.17;4.70;;;36.20;97.00;;;;;;20996738;28;20044;-76
2022/06/19 12:07:05;;;;;;;16.45;6.68;;;35.70;94.40;;;;;;21054045;28;20044;-78
2022/06/19 12:17:30;;;;;;;24.65;4.97;;;37.10;94.40;;;;;;21138636;28;20105;-77
2022/06/19 12:27:38;;;;;;;18.52;5.22;;;35.80;95.30;;;;;;21079358;28;20055;-77
2022/06/19 12:37:38;;;;;;;15.57;4.65;;;35.80;94.00;;;;;;20989548;28;20465;-78
2022/06/19 12:47:57;;;;;;;16.05;5.43;;;37.20;92.40;;;;;;20978615;28;20045;-78
2022/06/19 12:58:10;;;;;;;13.88;4.93;;;37.00;92.40;;;;;;21018381;28;20169;-77
2022/06/19 13:08:18;;;;;;;24.67;5.78;;;36.30;89.80;;;;;;21087518;28;20044;-77
2022/06/19 13:18:19;;;;;;;20.60;4.77;;;36.50;89.70;;;;;;21087686;28;20084;-76
2022/06/19 13:28:41;;;;;;;23.27;6.00;;;37.60;90.10;;;;;;21042548;28;20039;-78
2022/06/19 13:39:02;;;;;;;20.85;5.13;;;37.10;88.90;;;;;;21080355;28;20135;-78
2022/06/19 13:49:12;;;;;;;17.00;6.25;;;37.50;89.30;;;;;;21089532;28;20127;-80
2022/06/19 13:59:25;;;;;;;23.15;6.10;;;36.90;88.10;;;;;;21058118;28;20402;-78
2022/06/19 14:09:53;;;;;;;15.48;4.80;;;37.20;84.60;;;;;;21084438;28;20040;-79
2022/06/19 14:20:22;;;;;;;24.58;4.90;;;37.40;84.00;;;;;;21080704;28;20050;-78
2022/06/19 14:30:26;;;;;;;17.95;5.30;;;37.40;81.80;;;;;;21098103;28;20040;-80
2022/06/19 14:40:29;;;;;;;24.73;5.32;;;37.60;83.70;;;;;;21097274;28;20089;-80
2022/06/19 14:51:02;;;;;;;25.48;5.10;;;37.50;84.80;;;;;;21085499;28;20051;-79
2022/06/19 15:01:04;;;;;;;22.67;5.85;;;37.40;83.90;;;;;;21056303;28;20619;-80
2022/06/19 15:11:09;;;;;;;18.00;5.10;;;36.80;81.50;;;;;;21099873;28;20036;-79
2022/06/19 15:21:25;;;;;;;16.83;5.13;;;37.20;82.30;;;;;;21095771;28;20103;-79
2022/06/19 15:32:12;;;;;;;22.10;5.05;;;37.30;81.90;;;;;;21099196;28;20078;-81
2022/06/19 15:42:31;;;;;;;18.95;5.30;;;36.90;82.50;;;;;;21099230;28;20040;-78
2022/06/19 15:52:37;;;;;;;17.63;5.57;;;36.70;81.20;;;;;;21092171;28;20067;-81
2022/06/19 16:02:43;;;;;;;19.73;6.32;;;36.30;81.70;;;;;;21053341;28;20043;-80
2022/06/19 16:12:48;;;;;;;20.90;5.90;;;36.00;82.20;;;;;;21084594;28;20440;-80
2022/06/19 16:22:51;;;;;;;19.90;6.13;;;35.90;82.20;;;;;;21103554;28;20032;-78
2022/06/19 16:32:52;;;;;;;21.02;6.20;;;35.70;81.20;;;;;;21089905;28;20032;-79
2022/06/19 16:53:41;;;;;;;18.38;5.07;;;35.90;86.60;;;;;;21123307;28;20292;-77
2022/06/19 17:03:48;;;;;;;20.75;6.57;;;35.90;88.10;;;;;;21080612;28;20532;-79
2022/06/19 17:14:02;;;;;;;17.25;5.88;;;35.70;89.90;;;;;;21063243;28;20158;-78
2022/06/19 17:24:09;;;;;;;17.23;6.15;;;35.70;91.00;;;;;;21085490;28;20044;-78
2022/06/19 17:34:24;;;;;;;17.83;5.82;;;35.20;91.60;;;;;;21021950;28;20586;-77
2022/06/19 17:44:32;;;;;;;22.60;6.53;;;34.90;91.30;;;;;;21031941;28;20056;-77
2022/06/19 17:54:37;;;;;;;21.55;7.07;;;34.40;92.30;;;;;;21074611;28;20644;-75
2022/06/19 18:04:49;;;;;;;20.85;8.40;;;34.10;92.90;;;;;;21047727;28;20041;-79
2022/06/19 18:14:50;;;;;;;23.13;7.78;;;33.50;93.90;;;;;;21042637;28;20043;-79
2022/06/19 18:24:51;;;;;;;14.77;7.68;;;33.80;94.40;;;;;;21043252;28;20418;-76
2022/06/19 18:34:56;;;;;;;17.33;7.88;;;33.30;94.80;;;;;;21059660;28;20051;-75
2022/06/19 18:44:57;;;;;;;16.80;8.38;;;33.30;95.10;;;;;;21065064;28;20509;-76
2022/06/19 18:55:01;;;;;;;45.65;20.65;;;32.40;96.40;;;;;;21076138;28;20073;-78
2022/06/19 19:05:02;;;;;;;17.20;8.90;;;31.50;98.10;;;;;;21071044;28;20038;-78
2022/06/19 19:15:23;;;;;;;17.52;9.25;;;31.00;99.30;;;;;;21050853;28;20383;-78
2022/06/19 19:25:34;;;;;;;23.50;9.73;;;30.70;99.90;;;;;;21052839;28;20466;-78
2022/06/19 19:35:38;;;;;;;31.45;9.80;;;29.50;99.90;;;;;;21047889;28;20045;-78
2022/06/19 19:45:39;;;;;;;22.58;9.50;;;28.70;99.90;;;;;;21048033;28;20051;-76
2022/06/19 19:55:40;;;;;;;27.08;9.27;;;28.50;99.90;;;;;;21056215;28;20131;-78
2022/06/19 20:16:00;;;;;;;16.30;8.88;;;27.90;99.90;;;;;;21071187;28;20036;-79
2022/06/19 20:26:02;;;;;;;18.63;8.90;;;27.30;99.90;;;;;;21065201;28;20101;-77
2022/06/19 20:36:13;;;;;;;36.00;10.32;;;27.00;99.90;;;;;;21079366;28;20044;-77
2022/06/19 20:46:15;;;;;;;14.35;8.57;;;26.20;99.90;;;;;;21077329;28;20133;-77
2022/06/19 20:56:16;;;;;;;15.98;8.60;;;26.00;99.90;;;;;;21100307;28;20506;-75
2022/06/19 21:06:17;;;;;;;17.50;7.88;;;25.80;99.90;;;;;;20997559;28;20048;-76
2022/06/19 21:16:21;;;;;;;18.38;9.20;;;25.60;99.90;;;;;;20982540;28;20620;-76
2022/06/19 21:26:23;;;;;;;19.88;8.25;;;25.60;99.90;;;;;;20981091;28;20036;-76
2022/06/19 21:36:26;;;;;;;19.80;8.48;;;25.20;99.90;;;;;;21008799;28;20036;-76
2022/06/19 21:46:29;;;;;;;16.95;8.10;;;24.80;99.90;;;;;;21089905;28;20039;-77
2022/06/19 21:56:31;;;;;;;10.32;6.32;;;24.50;99.90;;;;;;21054808;28;20036;-77
2022/06/19 22:06:44;;;;;;;15.93;7.65;;;24.30;99.90;;;;;;21045596;28;20033;-77
2022/06/19 22:16:45;;;;;;;16.35;6.45;;;24.10;99.90;;;;;;21043653;28;20043;-77
2022/06/19 22:26:47;;;;;;;16.73;5.78;;;24.00;99.90;;;;;;21019983;28;20036;-76
2022/06/19 22:36:53;;;;;;;13.02;6.53;;;23.60;99.90;;;;;;21040470;28;20510;-77
2022/06/19 22:46:57;;;;;;;15.20;6.10;;;23.50;99.90;;;;;;21042382;28;20040;-77
2022/06/19 22:56:58;;;;;;;18.48;6.22;;;23.30;99.90;;;;;;21010933;28;20035;-77
2022/06/19 23:06:59;;;;;;;14.80;7.32;;;23.00;99.90;;;;;;21070720;28;20044;-77
2022/06/19 23:17:13;;;;;;;17.73;6.22;;;22.60;99.90;;;;;;21082470;28;20099;-76
2022/06/19 23:27:18;;;;;;;19.48;6.57;;;22.30;99.90;;;;;;21080991;28;20043;-77
2022/06/19 23:37:23;;;;;;;18.23;6.20;;;22.20;99.90;;;;;;21010196;28;20129;-76
2022/06/19 23:47:26;;;;;;;16.42;7.85;;;21.80;99.90;;;;;;21007518;22;20048;-75
2022/06/19 23:57:27;;;;;;;11.82;6.32;;;21.70;99.90;;;;;;20990215;28;20127;-75
